KAL2120 RJBB-RKSS
Flight info
| Callsign | KAL2120 |
|---|---|
| Flight time | 1h 21m |
| Altitude | 36000 |
| Route | OYE Y39 MIHOU Y38 SAPRA Y685 GUKDO GUKDO2T |
| Aircraft | A21N/M-SDE2E3FGHIJ1RWXY/LB1 |
Departure
| Time | 2026-05-05 01:46 |
|---|---|
| Airport | Kansai International Airport (RJBB) |
Arrival
| Time | 2026-05-05 03:08 |
|---|---|
| Airport | Gimpo International Airport (RKSS) |
| Time | Latitude | Longitude | Altitude | Speed | Heading |
|---|---|---|---|---|---|
| 2026-05-05 01:38 | 34.43324 | 135.24778 | 24 ft | 19 kts | 233° |
| 2026-05-05 01:38 | 34.43236 | 135.24644 | 24 ft | 21 kts | 231° |
| 2026-05-05 01:38 | 34.43136 | 135.24496 | 24 ft | 24 kts | 228° |
| 2026-05-05 01:38 | 34.43022 | 135.24334 | 24 ft | 26 kts | 233° |
| 2026-05-05 01:39 | 34.42906 | 135.24151 | 24 ft | 29 kts | 234° |
| 2026-05-05 01:39 | 34.42781 | 135.23968 | 24 ft | 15 kts | 232° |
| 2026-05-05 01:39 | 34.42723 | 135.23854 | 24 ft | 17 kts | 263° |
| 2026-05-05 01:39 | 34.42804 | 135.23736 | 24 ft | 20 kts | 323° |
| 2026-05-05 01:40 | 34.42919 | 135.23622 | 24 ft | 23 kts | 322° |
| 2026-05-05 01:40 | 34.43020 | 135.23495 | 24 ft | 20 kts | 271° |
| 2026-05-05 01:40 | 34.42999 | 135.23334 | 25 ft | 23 kts | 300° |
| 2026-05-05 01:40 | 34.43124 | 135.23195 | 28 ft | 26 kts | 321° |
| 2026-05-05 01:41 | 34.43274 | 135.23049 | 34 ft | 29 kts | 327° |
| 2026-05-05 01:41 | 34.43437 | 135.22896 | 34 ft | 31 kts | 328° |
| 2026-05-05 01:41 | 34.43612 | 135.22718 | 34 ft | 33 kts | 323° |
| 2026-05-05 01:41 | 34.43635 | 135.22698 | 34 ft | 2 kts | 334° |
| 2026-05-05 01:42 | 34.43664 | 135.22672 | 34 ft | 10 kts | 323° |
| 2026-05-05 01:42 | 34.43759 | 135.22576 | 34 ft | 21 kts | 320° |
| 2026-05-05 01:42 | 34.43841 | 135.22433 | 34 ft | 26 kts | 230° |
| 2026-05-05 01:42 | 34.43725 | 135.22259 | 34 ft | 28 kts | 230° |
| 2026-05-05 01:43 | 34.43596 | 135.22069 | 34 ft | 30 kts | 231° |
| 2026-05-05 01:43 | 34.43474 | 135.21888 | 34 ft | 27 kts | 231° |
| 2026-05-05 01:43 | 34.43352 | 135.21707 | 34 ft | 29 kts | 231° |
| 2026-05-05 01:43 | 34.43220 | 135.21510 | 34 ft | 31 kts | 231° |
| 2026-05-05 01:44 | 34.43097 | 135.21321 | 34 ft | 27 kts | 231° |
| 2026-05-05 01:44 | 34.42975 | 135.21137 | 34 ft | 29 kts | 231° |
| 2026-05-05 01:44 | 34.42841 | 135.20942 | 34 ft | 31 kts | 229° |
| 2026-05-05 01:44 | 34.42753 | 135.20768 | 34 ft | 16 kts | 277° |
| 2026-05-05 01:45 | 34.42832 | 135.20666 | 30 ft | 18 kts | 326° |
| 2026-05-05 01:45 | 34.42906 | 135.20692 | 30 ft | 1 kts | 31° |
| 2026-05-05 01:45 | 34.42917 | 135.20708 | 30 ft | 0 kts | 50° |
| 2026-05-05 01:45 | 34.42919 | 135.20710 | 30 ft | 0 kts | 50° |
| 2026-05-05 01:46 | 34.42926 | 135.20722 | 31 ft | 15 kts | 51° |
| 2026-05-05 01:46 | 34.43212 | 135.21150 | 36 ft | 115 kts | 51° |
| 2026-05-05 01:46 | 34.43881 | 135.22166 | 38 ft | 188 kts | 45° |
| 2026-05-05 01:46 | 34.44787 | 135.23353 | 986 ft | 180 kts | 45° |
| 2026-05-05 01:47 | 34.45608 | 135.24375 | 2407 ft | 161 kts | 45° |
| 2026-05-05 01:47 | 34.46341 | 135.25225 | 3782 ft | 128 kts | 45° |
| 2026-05-05 01:47 | 34.46985 | 135.25927 | 4787 ft | 132 kts | 43° |
| 2026-05-05 01:47 | 34.47750 | 135.26689 | 5421 ft | 150 kts | 36° |
| 2026-05-05 01:48 | 34.48811 | 135.27005 | 5907 ft | 177 kts | 351° |
| 2026-05-05 01:48 | 34.49902 | 135.26182 | 6631 ft | 199 kts | 304° |
| 2026-05-05 01:48 | 34.50577 | 135.24670 | 7465 ft | 216 kts | 306° |
| 2026-05-05 01:48 | 34.51749 | 135.23349 | 8029 ft | 245 kts | 321° |
| 2026-05-05 01:49 | 34.53097 | 135.21913 | 8756 ft | 268 kts | 316° |
| 2026-05-05 01:49 | 34.54447 | 135.20320 | 9705 ft | 280 kts | 314° |
| 2026-05-05 01:49 | 34.55843 | 135.18578 | 10479 ft | 301 kts | 313° |
| 2026-05-05 01:49 | 34.57342 | 135.16638 | 10890 ft | 329 kts | 312° |
| 2026-05-05 01:50 | 34.58859 | 135.14416 | 11268 ft | 356 kts | 305° |
| 2026-05-05 01:50 | 34.60101 | 135.11713 | 11676 ft | 378 kts | 294° |
| 2026-05-05 01:50 | 34.60842 | 135.08606 | 12342 ft | 389 kts | 279° |
| 2026-05-05 01:50 | 34.61038 | 135.05294 | 13154 ft | 396 kts | 271° |
| 2026-05-05 01:51 | 34.61071 | 135.01927 | 13966 ft | 401 kts | 271° |
| 2026-05-05 01:51 | 34.61168 | 134.98527 | 14697 ft | 405 kts | 275° |
| 2026-05-05 01:51 | 34.61380 | 134.95141 | 15444 ft | 410 kts | 275° |
| 2026-05-05 01:51 | 34.61611 | 134.91636 | 16222 ft | 414 kts | 275° |
| 2026-05-05 01:52 | 34.61834 | 134.88174 | 17020 ft | 418 kts | 275° |
| 2026-05-05 01:52 | 34.62057 | 134.84638 | 17829 ft | 423 kts | 275° |
| 2026-05-05 01:52 | 34.62282 | 134.81082 | 18612 ft | 426 kts | 275° |
| 2026-05-05 01:52 | 34.62431 | 134.77489 | 19337 ft | 428 kts | 269° |
| 2026-05-05 01:53 | 34.62264 | 134.73875 | 20115 ft | 429 kts | 265° |
| 2026-05-05 01:53 | 34.62023 | 134.70269 | 20888 ft | 428 kts | 265° |
| 2026-05-05 01:53 | 34.61769 | 134.66664 | 21660 ft | 428 kts | 265° |
| 2026-05-05 01:53 | 34.61525 | 134.63076 | 22431 ft | 427 kts | 265° |
| 2026-05-05 01:54 | 34.61316 | 134.59525 | 23204 ft | 427 kts | 268° |
| 2026-05-05 01:54 | 34.61643 | 134.55946 | 23928 ft | 429 kts | 282° |
| 2026-05-05 01:54 | 34.62677 | 134.52540 | 24522 ft | 434 kts | 294° |
| 2026-05-05 01:54 | 34.64260 | 134.49395 | 25068 ft | 438 kts | 299° |
| 2026-05-05 01:55 | 34.65945 | 134.46301 | 25570 ft | 440 kts | 299° |
| 2026-05-05 01:55 | 34.67636 | 134.43196 | 26065 ft | 441 kts | 299° |
| 2026-05-05 01:55 | 34.69310 | 134.40091 | 26727 ft | 437 kts | 298° |
| 2026-05-05 01:55 | 34.70959 | 134.37006 | 27393 ft | 434 kts | 297° |
| 2026-05-05 01:56 | 34.72588 | 134.33938 | 28097 ft | 430 kts | 297° |
| 2026-05-05 01:56 | 34.74184 | 134.30926 | 28781 ft | 427 kts | 297° |
| 2026-05-05 01:56 | 34.75796 | 134.27897 | 29457 ft | 425 kts | 297° |
| 2026-05-05 01:56 | 34.77392 | 134.24893 | 30083 ft | 423 kts | 296° |
| 2026-05-05 01:57 | 34.78978 | 134.21888 | 30611 ft | 421 kts | 296° |
| 2026-05-05 01:57 | 34.80563 | 134.18901 | 31142 ft | 419 kts | 296° |
| 2026-05-05 01:57 | 34.82127 | 134.15952 | 31657 ft | 416 kts | 295° |
| 2026-05-05 01:57 | 34.83689 | 134.13000 | 32216 ft | 413 kts | 295° |
| 2026-05-05 01:58 | 34.85218 | 134.10116 | 32755 ft | 410 kts | 295° |
| 2026-05-05 01:58 | 34.86758 | 134.07213 | 33265 ft | 407 kts | 295° |
| 2026-05-05 01:58 | 34.88283 | 134.04323 | 33812 ft | 404 kts | 294° |
| 2026-05-05 01:58 | 34.89790 | 134.01457 | 34316 ft | 401 kts | 294° |
| 2026-05-05 01:59 | 34.91294 | 133.98599 | 34666 ft | 401 kts | 294° |
| 2026-05-05 01:59 | 34.92799 | 133.95734 | 35011 ft | 401 kts | 294° |
| 2026-05-05 01:59 | 34.94300 | 133.92876 | 35363 ft | 400 kts | 294° |
| 2026-05-05 01:59 | 34.95801 | 133.90018 | 35693 ft | 400 kts | 294° |
| 2026-05-05 02:00 | 34.97301 | 133.87159 | 36021 ft | 400 kts | 294° |
| 2026-05-05 02:00 | 34.98779 | 133.84339 | 36220 ft | 400 kts | 294° |
| 2026-05-05 02:00 | 35.01777 | 133.78619 | 36258 ft | 401 kts | 294° |
| 2026-05-05 02:01 | 35.04784 | 133.72873 | 36239 ft | 402 kts | 294° |
| 2026-05-05 02:01 | 35.07786 | 133.67125 | 36231 ft | 402 kts | 294° |
| 2026-05-05 02:02 | 35.10778 | 133.61390 | 36224 ft | 403 kts | 294° |
| 2026-05-05 02:02 | 35.13764 | 133.55632 | 36228 ft | 403 kts | 294° |
| 2026-05-05 02:03 | 35.16773 | 133.49843 | 36227 ft | 404 kts | 295° |
| 2026-05-05 02:03 | 35.19785 | 133.44038 | 36212 ft | 405 kts | 295° |
| 2026-05-05 02:04 | 35.22782 | 133.38255 | 36211 ft | 405 kts | 294° |
| 2026-05-05 02:04 | 35.25790 | 133.32431 | 36209 ft | 405 kts | 295° |
| 2026-05-05 02:05 | 35.28805 | 133.26577 | 36212 ft | 406 kts | 295° |
| 2026-05-05 02:05 | 35.31821 | 133.20732 | 36210 ft | 406 kts | 295° |
| 2026-05-05 02:06 | 35.34823 | 133.14903 | 36209 ft | 408 kts | 295° |
| 2026-05-05 02:06 | 35.37836 | 133.09024 | 36199 ft | 408 kts | 295° |
| 2026-05-05 02:07 | 35.40857 | 133.03126 | 36203 ft | 409 kts | 295° |
| 2026-05-05 02:07 | 35.43867 | 132.97241 | 36205 ft | 409 kts | 295° |
| 2026-05-05 02:08 | 35.46892 | 132.91322 | 36204 ft | 409 kts | 295° |
| 2026-05-05 02:08 | 35.49887 | 132.85435 | 36182 ft | 410 kts | 295° |
| 2026-05-05 02:09 | 35.52915 | 132.79492 | 36184 ft | 411 kts | 295° |
| 2026-05-05 02:09 | 35.55951 | 132.73551 | 36190 ft | 411 kts | 295° |
| 2026-05-05 02:10 | 35.58312 | 132.67272 | 36197 ft | 400 kts | 280° |
| 2026-05-05 02:10 | 35.59277 | 132.60575 | 36206 ft | 398 kts | 275° |
| 2026-05-05 02:11 | 35.60122 | 132.53905 | 36213 ft | 398 kts | 275° |
| 2026-05-05 02:11 | 35.60991 | 132.47178 | 36217 ft | 399 kts | 275° |
| 2026-05-05 02:12 | 35.62289 | 132.37132 | 36210 ft | 399 kts | 275° |
| 2026-05-05 02:13 | 35.63158 | 132.30385 | 36213 ft | 399 kts | 275° |
| 2026-05-05 02:13 | 35.64025 | 132.23638 | 36214 ft | 400 kts | 275° |
| 2026-05-05 02:14 | 35.64879 | 132.16930 | 36216 ft | 400 kts | 275° |
| 2026-05-05 02:14 | 35.65739 | 132.10168 | 36215 ft | 401 kts | 275° |
| 2026-05-05 02:15 | 35.66594 | 132.03406 | 36213 ft | 401 kts | 275° |
| 2026-05-05 02:15 | 35.67301 | 131.97775 | 36213 ft | 401 kts | 275° |
| 2026-05-05 02:16 | 35.68288 | 131.89897 | 36213 ft | 401 kts | 275° |
| 2026-05-05 02:16 | 35.69129 | 131.83114 | 36210 ft | 401 kts | 275° |
| 2026-05-05 02:17 | 35.69831 | 131.77468 | 36207 ft | 402 kts | 275° |
| 2026-05-05 02:17 | 35.70673 | 131.70679 | 36208 ft | 402 kts | 275° |
| 2026-05-05 02:18 | 35.71647 | 131.62762 | 36209 ft | 403 kts | 275° |
| 2026-05-05 02:18 | 35.72482 | 131.55951 | 36210 ft | 403 kts | 275° |
| 2026-05-05 02:19 | 35.73312 | 131.49135 | 36202 ft | 403 kts | 275° |
| 2026-05-05 02:19 | 35.73998 | 131.43466 | 36199 ft | 403 kts | 275° |
| 2026-05-05 02:20 | 35.74823 | 131.36642 | 36198 ft | 403 kts | 275° |
| 2026-05-05 02:20 | 35.75642 | 131.29812 | 36198 ft | 404 kts | 275° |
| 2026-05-05 02:21 | 35.76456 | 131.22971 | 36197 ft | 404 kts | 275° |
| 2026-05-05 02:21 | 35.77263 | 131.16166 | 36199 ft | 404 kts | 275° |
| 2026-05-05 02:22 | 35.78073 | 131.09317 | 36192 ft | 405 kts | 275° |
| 2026-05-05 02:22 | 35.78885 | 131.02428 | 36192 ft | 405 kts | 275° |
| 2026-05-05 02:23 | 35.79818 | 130.94468 | 36191 ft | 406 kts | 275° |
| 2026-05-05 02:23 | 35.80482 | 130.88749 | 36190 ft | 406 kts | 275° |
| 2026-05-05 02:24 | 35.81280 | 130.81866 | 36195 ft | 406 kts | 275° |
| 2026-05-05 02:24 | 35.82076 | 130.74983 | 36191 ft | 406 kts | 275° |
| 2026-05-05 02:25 | 35.82903 | 130.68094 | 36185 ft | 407 kts | 276° |
| 2026-05-05 02:25 | 35.83794 | 130.61214 | 36188 ft | 407 kts | 276° |
| 2026-05-05 02:26 | 35.84668 | 130.54362 | 36187 ft | 407 kts | 276° |
| 2026-05-05 02:26 | 35.85536 | 130.47456 | 36187 ft | 408 kts | 276° |
| 2026-05-05 02:27 | 35.86407 | 130.40547 | 36185 ft | 408 kts | 276° |
| 2026-05-05 02:27 | 35.87276 | 130.33626 | 36187 ft | 409 kts | 276° |
| 2026-05-05 02:28 | 35.88137 | 130.26727 | 36180 ft | 409 kts | 276° |
| 2026-05-05 02:28 | 35.88988 | 130.19839 | 36180 ft | 409 kts | 276° |
| 2026-05-05 02:29 | 35.89841 | 130.12956 | 35821 ft | 404 kts | 276° |
| 2026-05-05 02:29 | 35.90263 | 130.09522 | 35510 ft | 407 kts | 276° |
| 2026-05-05 02:29 | 35.90686 | 130.06060 | 35246 ft | 409 kts | 276° |
| 2026-05-05 02:29 | 35.91107 | 130.02586 | 35005 ft | 410 kts | 276° |
| 2026-05-05 02:30 | 35.91529 | 129.99105 | 34768 ft | 412 kts | 276° |
| 2026-05-05 02:30 | 35.91953 | 129.95602 | 34536 ft | 413 kts | 276° |
| 2026-05-05 02:30 | 35.92378 | 129.92099 | 34304 ft | 414 kts | 276° |
| 2026-05-05 02:30 | 35.92803 | 129.88590 | 34059 ft | 415 kts | 276° |
| 2026-05-05 02:31 | 35.93230 | 129.85058 | 33779 ft | 416 kts | 276° |
| 2026-05-05 02:31 | 35.93649 | 129.81567 | 33513 ft | 417 kts | 276° |
| 2026-05-05 02:31 | 35.94078 | 129.78022 | 33243 ft | 419 kts | 276° |
| 2026-05-05 02:31 | 35.94505 | 129.74457 | 32975 ft | 420 kts | 276° |
| 2026-05-05 02:32 | 35.94930 | 129.70892 | 32712 ft | 421 kts | 276° |
| 2026-05-05 02:32 | 35.95360 | 129.67312 | 32448 ft | 422 kts | 276° |
| 2026-05-05 02:32 | 35.95789 | 129.63722 | 32191 ft | 424 kts | 276° |
| 2026-05-05 02:32 | 35.96215 | 129.60135 | 31934 ft | 425 kts | 276° |
| 2026-05-05 02:33 | 35.96643 | 129.56523 | 31682 ft | 426 kts | 276° |
| 2026-05-05 02:33 | 35.97070 | 129.52905 | 31431 ft | 427 kts | 276° |
| 2026-05-05 02:33 | 35.97661 | 129.49347 | 31188 ft | 430 kts | 283° |
| 2026-05-05 02:33 | 35.98771 | 129.45899 | 30934 ft | 436 kts | 294° |
| 2026-05-05 02:34 | 36.00395 | 129.42728 | 30695 ft | 440 kts | 302° |
| 2026-05-05 02:34 | 36.02182 | 129.39653 | 30458 ft | 441 kts | 303° |
| 2026-05-05 02:34 | 36.03988 | 129.36571 | 30215 ft | 443 kts | 303° |
| 2026-05-05 02:34 | 36.05785 | 129.33487 | 29938 ft | 444 kts | 302° |
| 2026-05-05 02:35 | 36.07588 | 129.30371 | 29654 ft | 445 kts | 302° |
| 2026-05-05 02:35 | 36.09384 | 129.27258 | 29385 ft | 446 kts | 302° |
| 2026-05-05 02:35 | 36.11184 | 129.24131 | 29121 ft | 447 kts | 302° |
| 2026-05-05 02:35 | 36.12986 | 129.20986 | 28842 ft | 449 kts | 302° |
| 2026-05-05 02:36 | 36.14794 | 129.17834 | 28566 ft | 450 kts | 303° |
| 2026-05-05 02:36 | 36.16612 | 129.14670 | 28303 ft | 452 kts | 303° |
| 2026-05-05 02:36 | 36.18412 | 129.11537 | 28041 ft | 452 kts | 303° |
| 2026-05-05 02:36 | 36.20239 | 129.08357 | 27772 ft | 454 kts | 303° |
| 2026-05-05 02:37 | 36.22068 | 129.05164 | 27524 ft | 455 kts | 303° |
| 2026-05-05 02:37 | 36.23898 | 129.01960 | 27264 ft | 456 kts | 303° |
| 2026-05-05 02:37 | 36.25729 | 128.98752 | 27008 ft | 458 kts | 303° |
| 2026-05-05 02:37 | 36.27558 | 128.95547 | 26750 ft | 459 kts | 303° |
| 2026-05-05 02:38 | 36.29403 | 128.92317 | 26503 ft | 460 kts | 303° |
| 2026-05-05 02:38 | 36.31227 | 128.89121 | 26258 ft | 461 kts | 303° |
| 2026-05-05 02:38 | 36.33079 | 128.85868 | 26110 ft | 463 kts | 303° |
| 2026-05-05 02:38 | 36.34938 | 128.82600 | 26096 ft | 463 kts | 303° |
| 2026-05-05 02:39 | 36.36796 | 128.79327 | 26117 ft | 464 kts | 303° |
| 2026-05-05 02:39 | 36.38651 | 128.76060 | 26131 ft | 464 kts | 303° |
| 2026-05-05 02:39 | 36.40507 | 128.72789 | 26145 ft | 464 kts | 303° |
| 2026-05-05 02:39 | 36.42363 | 128.69511 | 26148 ft | 464 kts | 303° |
| 2026-05-05 02:40 | 36.44227 | 128.66226 | 26147 ft | 465 kts | 303° |
| 2026-05-05 02:40 | 36.46087 | 128.62941 | 26143 ft | 465 kts | 303° |
| 2026-05-05 02:40 | 36.47921 | 128.59694 | 26138 ft | 465 kts | 303° |
| 2026-05-05 02:40 | 36.49777 | 128.56403 | 26137 ft | 465 kts | 303° |
| 2026-05-05 02:41 | 36.51632 | 128.53112 | 26132 ft | 466 kts | 303° |
| 2026-05-05 02:41 | 36.53493 | 128.49806 | 26136 ft | 466 kts | 304° |
| 2026-05-05 02:41 | 36.55347 | 128.46506 | 26137 ft | 466 kts | 304° |
| 2026-05-05 02:41 | 36.57207 | 128.43198 | 26137 ft | 466 kts | 304° |
| 2026-05-05 02:42 | 36.59069 | 128.39889 | 26133 ft | 467 kts | 304° |
| 2026-05-05 02:42 | 36.60929 | 128.36585 | 26130 ft | 467 kts | 304° |
| 2026-05-05 02:42 | 36.62790 | 128.33262 | 26133 ft | 467 kts | 304° |
| 2026-05-05 02:42 | 36.64640 | 128.29978 | 26124 ft | 467 kts | 304° |
| 2026-05-05 02:43 | 36.66525 | 128.26680 | 26127 ft | 467 kts | 304° |
| 2026-05-05 02:43 | 36.68410 | 128.23381 | 26135 ft | 467 kts | 304° |
| 2026-05-05 02:43 | 36.70297 | 128.20077 | 26132 ft | 467 kts | 304° |
| 2026-05-05 02:43 | 36.72179 | 128.16771 | 26136 ft | 467 kts | 304° |
| 2026-05-05 02:44 | 36.74028 | 128.13507 | 26080 ft | 468 kts | 304° |
| 2026-05-05 02:44 | 36.75912 | 128.10193 | 25887 ft | 465 kts | 304° |
| 2026-05-05 02:44 | 36.77747 | 128.06969 | 25080 ft | 451 kts | 304° |
| 2026-05-05 02:44 | 36.79555 | 128.03776 | 23835 ft | 455 kts | 304° |
| 2026-05-05 02:45 | 36.81408 | 128.00494 | 23178 ft | 466 kts | 304° |
| 2026-05-05 02:45 | 36.83272 | 127.97188 | 22807 ft | 464 kts | 304° |
| 2026-05-05 02:45 | 36.85124 | 127.93901 | 22510 ft | 463 kts | 304° |
| 2026-05-05 02:45 | 36.86976 | 127.90609 | 22239 ft | 462 kts | 304° |
| 2026-05-05 02:46 | 36.88793 | 127.87383 | 21994 ft | 460 kts | 304° |
| 2026-05-05 02:46 | 36.90631 | 127.84118 | 21728 ft | 460 kts | 304° |
| 2026-05-05 02:46 | 36.92459 | 127.80872 | 21012 ft | 449 kts | 304° |
| 2026-05-05 02:46 | 36.94255 | 127.77680 | 19913 ft | 451 kts | 304° |
| 2026-05-05 02:47 | 36.96060 | 127.74474 | 19073 ft | 450 kts | 304° |
| 2026-05-05 02:47 | 36.97853 | 127.71288 | 18578 ft | 446 kts | 304° |
| 2026-05-05 02:47 | 36.99643 | 127.68106 | 18320 ft | 447 kts | 304° |
| 2026-05-05 02:47 | 37.01417 | 127.64959 | 18203 ft | 446 kts | 300° |
| 2026-05-05 02:48 | 37.02812 | 127.61478 | 18169 ft | 447 kts | 293° |
| 2026-05-05 02:48 | 37.04000 | 127.57995 | 17644 ft | 426 kts | 291° |
| 2026-05-05 02:48 | 37.05108 | 127.54624 | 16330 ft | 424 kts | 291° |
| 2026-05-05 02:48 | 37.06230 | 127.51201 | 15042 ft | 425 kts | 291° |
| 2026-05-05 02:49 | 37.07362 | 127.47787 | 13968 ft | 423 kts | 291° |
| 2026-05-05 02:49 | 37.08501 | 127.44391 | 13005 ft | 422 kts | 291° |
| 2026-05-05 02:49 | 37.09636 | 127.41014 | 12440 ft | 418 kts | 291° |
| 2026-05-05 02:49 | 37.10732 | 127.37753 | 12174 ft | 399 kts | 291° |
| 2026-05-05 02:50 | 37.11787 | 127.34616 | 12059 ft | 386 kts | 291° |
| 2026-05-05 02:50 | 37.12828 | 127.31524 | 12030 ft | 385 kts | 291° |
| 2026-05-05 02:50 | 37.13856 | 127.28472 | 12006 ft | 385 kts | 291° |
| 2026-05-05 02:50 | 37.14949 | 127.25405 | 11989 ft | 386 kts | 296° |
| 2026-05-05 02:51 | 37.16275 | 127.22541 | 11467 ft | 375 kts | 300° |
| 2026-05-05 02:51 | 37.17648 | 127.19840 | 11071 ft | 359 kts | 301° |
| 2026-05-05 02:51 | 37.18973 | 127.17284 | 10783 ft | 341 kts | 301° |
| 2026-05-05 02:51 | 37.20233 | 127.14867 | 10547 ft | 322 kts | 301° |
| 2026-05-05 02:52 | 37.21434 | 127.12572 | 10291 ft | 308 kts | 301° |
| 2026-05-05 02:52 | 37.22585 | 127.10378 | 10032 ft | 295 kts | 301° |
| 2026-05-05 02:52 | 37.23681 | 127.08294 | 9684 ft | 287 kts | 301° |
| 2026-05-05 02:52 | 37.24788 | 127.06195 | 9213 ft | 284 kts | 301° |
| 2026-05-05 02:53 | 37.25874 | 127.04140 | 8752 ft | 281 kts | 301° |
| 2026-05-05 02:53 | 37.26953 | 127.02103 | 8294 ft | 279 kts | 301° |
| 2026-05-05 02:53 | 37.28008 | 127.00112 | 8044 ft | 278 kts | 301° |
| 2026-05-05 02:53 | 37.29073 | 126.98102 | 7808 ft | 273 kts | 301° |
| 2026-05-05 02:54 | 37.30119 | 126.96125 | 7381 ft | 271 kts | 301° |
| 2026-05-05 02:54 | 37.31158 | 126.94162 | 6952 ft | 269 kts | 301° |
| 2026-05-05 02:54 | 37.32196 | 126.92204 | 6514 ft | 267 kts | 301° |
| 2026-05-05 02:54 | 37.33226 | 126.90263 | 6110 ft | 267 kts | 301° |
| 2026-05-05 02:55 | 37.34263 | 126.88326 | 5994 ft | 268 kts | 301° |
| 2026-05-05 02:55 | 37.35295 | 126.86402 | 6010 ft | 267 kts | 301° |
| 2026-05-05 02:55 | 37.36325 | 126.84477 | 6020 ft | 268 kts | 301° |
| 2026-05-05 02:55 | 37.37370 | 126.82532 | 6003 ft | 268 kts | 301° |
| 2026-05-05 02:56 | 37.38411 | 126.80594 | 6020 ft | 268 kts | 301° |
| 2026-05-05 02:56 | 37.39438 | 126.78676 | 6024 ft | 268 kts | 301° |
| 2026-05-05 02:56 | 37.40479 | 126.76737 | 6007 ft | 268 kts | 301° |
| 2026-05-05 02:56 | 37.41520 | 126.74799 | 5988 ft | 269 kts | 301° |
| 2026-05-05 02:57 | 37.42563 | 126.72853 | 5998 ft | 268 kts | 301° |
| 2026-05-05 02:57 | 37.43606 | 126.70912 | 5974 ft | 267 kts | 301° |
| 2026-05-05 02:57 | 37.44641 | 126.68998 | 5652 ft | 263 kts | 301° |
| 2026-05-05 02:57 | 37.45664 | 126.67117 | 5161 ft | 262 kts | 301° |
| 2026-05-05 02:58 | 37.46702 | 126.65228 | 4736 ft | 261 kts | 301° |
| 2026-05-05 02:58 | 37.47718 | 126.63388 | 4517 ft | 251 kts | 301° |
| 2026-05-05 02:58 | 37.48690 | 126.61640 | 4381 ft | 242 kts | 301° |
| 2026-05-05 02:58 | 37.49639 | 126.59950 | 4225 ft | 231 kts | 301° |
| 2026-05-05 02:59 | 37.50554 | 126.58341 | 4048 ft | 222 kts | 301° |
| 2026-05-05 02:59 | 37.51450 | 126.56769 | 3972 ft | 222 kts | 301° |
| 2026-05-05 02:59 | 37.52353 | 126.55182 | 3980 ft | 223 kts | 301° |
| 2026-05-05 02:59 | 37.53254 | 126.53607 | 4001 ft | 221 kts | 301° |
| 2026-05-05 03:00 | 37.54155 | 126.52035 | 4009 ft | 221 kts | 301° |
| 2026-05-05 03:00 | 37.55099 | 126.50529 | 3998 ft | 225 kts | 314° |
| 2026-05-05 03:00 | 37.56487 | 126.49603 | 3902 ft | 230 kts | 343° |
| 2026-05-05 03:00 | 37.58062 | 126.49663 | 3690 ft | 226 kts | 18° |
| 2026-05-05 03:01 | 37.59376 | 126.50648 | 3554 ft | 216 kts | 40° |
| 2026-05-05 03:01 | 37.60511 | 126.51829 | 3459 ft | 208 kts | 41° |
| 2026-05-05 03:01 | 37.61614 | 126.53001 | 3230 ft | 207 kts | 41° |
| 2026-05-05 03:01 | 37.62706 | 126.54183 | 2932 ft | 206 kts | 41° |
| 2026-05-05 03:02 | 37.63782 | 126.55356 | 2781 ft | 203 kts | 41° |
| 2026-05-05 03:02 | 37.64823 | 126.56489 | 2779 ft | 195 kts | 41° |
| 2026-05-05 03:02 | 37.65852 | 126.57606 | 2762 ft | 195 kts | 41° |
| 2026-05-05 03:02 | 37.66710 | 126.58884 | 2798 ft | 192 kts | 71° |
| 2026-05-05 03:03 | 37.66859 | 126.60490 | 2847 ft | 199 kts | 108° |
| 2026-05-05 03:03 | 37.66321 | 126.62163 | 2882 ft | 199 kts | 121° |
| 2026-05-05 03:03 | 37.65747 | 126.63666 | 2817 ft | 182 kts | 121° |
| 2026-05-05 03:03 | 37.65212 | 126.65063 | 2849 ft | 175 kts | 122° |
| 2026-05-05 03:04 | 37.64715 | 126.66397 | 2748 ft | 157 kts | 121° |
| 2026-05-05 03:04 | 37.64293 | 126.67571 | 2622 ft | 141 kts | 121° |
| 2026-05-05 03:04 | 37.63830 | 126.68680 | 2382 ft | 145 kts | 130° |
| 2026-05-05 03:04 | 37.63192 | 126.69634 | 2070 ft | 137 kts | 141° |
| 2026-05-05 03:05 | 37.62507 | 126.70436 | 1843 ft | 131 kts | 144° |
| 2026-05-05 03:05 | 37.61859 | 126.71236 | 1625 ft | 125 kts | 143° |
| 2026-05-05 03:05 | 37.61232 | 126.71987 | 1361 ft | 125 kts | 141° |
| 2026-05-05 03:05 | 37.60629 | 126.72764 | 1209 ft | 123 kts | 141° |
| 2026-05-05 03:06 | 37.60037 | 126.73512 | 1084 ft | 122 kts | 142° |
| 2026-05-05 03:06 | 37.59422 | 126.74250 | 866 ft | 121 kts | 141° |
| 2026-05-05 03:06 | 37.58837 | 126.75006 | 657 ft | 120 kts | 140° |
| 2026-05-05 03:06 | 37.58240 | 126.75749 | 463 ft | 121 kts | 139° |
| 2026-05-05 03:07 | 37.57655 | 126.76506 | 337 ft | 119 kts | 139° |
| 2026-05-05 03:07 | 37.57066 | 126.77243 | 159 ft | 119 kts | 137° |
| 2026-05-05 03:07 | 37.56480 | 126.77982 | 71 ft | 116 kts | 135° |
| 2026-05-05 03:07 | 37.56018 | 126.78576 | 61 ft | 61 kts | 136° |
| 2026-05-05 03:08 | 37.55898 | 126.78724 | 60 ft | 7 kts | 135° |
| 2026-05-05 03:08 | 37.55850 | 126.78790 | 65 ft | 14 kts | 127° |
| 2026-05-05 03:08 | 37.55857 | 126.78853 | 58 ft | 11 kts | 58° |
| 2026-05-05 03:08 | 37.55903 | 126.78900 | 67 ft | 9 kts | 54° |
| 2026-05-05 03:09 | 37.55959 | 126.78982 | 55 ft | 15 kts | 52° |
| 2026-05-05 03:09 | 37.55966 | 126.78992 | 64 ft | 0 kts | 43° |
| 2026-05-05 03:09 | 37.55973 | 126.79000 | 66 ft | 6 kts | 44° |
| 2026-05-05 03:09 | 37.56068 | 126.79071 | 67 ft | 19 kts | 355° |
| 2026-05-05 03:10 | 37.56209 | 126.79001 | 67 ft | 25 kts | 338° |
| 2026-05-05 03:10 | 37.56313 | 126.79083 | 70 ft | 27 kts | 123° |
| 2026-05-05 03:10 | 37.56261 | 126.79143 | 69 ft | 9 kts | 141° |
| 2026-05-05 03:10 | 37.56211 | 126.79206 | 70 ft | 12 kts | 133° |
| 2026-05-05 03:11 | 37.56218 | 126.79309 | 67 ft | 15 kts | 53° |
| 2026-05-05 03:11 | 37.56299 | 126.79416 | 66 ft | 18 kts | 45° |
| 2026-05-05 03:11 | 37.56393 | 126.79534 | 69 ft | 20 kts | 47° |
| 2026-05-05 03:11 | 37.56496 | 126.79659 | 64 ft | 21 kts | 44° |
| 2026-05-05 03:12 | 37.56562 | 126.79743 | 67 ft | 1 kts | 45° |
| 2026-05-05 03:12 | 37.56576 | 126.79766 | 73 ft | 7 kts | 71° |
| 2026-05-05 03:12 | 37.56557 | 126.79844 | 66 ft | 11 kts | 134° |
| 2026-05-05 03:12 | 37.56539 | 126.79867 | 65 ft | 3 kts | 136° |
| 2026-05-05 03:13 | 37.56530 | 126.79878 | 71 ft | 2 kts | 135° |
| 2026-05-05 03:13 | 37.56532 | 126.79877 | 70 ft | 1 kts | 136° |
| 2026-05-05 03:13 | 37.56531 | 126.79877 | 71 ft | 0 kts | 136° |